Time;durP1;ratioP1;P1;durP2;ratioP2;P2;SDS_P1;SDS_P2;PMS_P1;PMS_P2;Temp;Humidity;BMP_temperature;BMP_pressure;BME280_temperature;BME280_humidity;BME280_pressure;Samples;Min_cycle;Max_cycle;Signal;HPM_P1;HPM_P2
2022/05/13 00:01:31;;;;;;;6.22;4.18;;;;;;;;;;5118751;28;20027;-69
2022/05/13 00:03:57;;;;;;;9.88;4.47;;;;;;;;;;5117637;28;20051;-69
2022/05/13 00:06:23;;;;;;;8.65;4.07;;;;;;;;;;5118185;28;20043;-70
2022/05/13 00:08:49;;;;;;;8.52;4.25;;;;;;;;;;5118133;28;20043;-69
2022/05/13 00:11:16;;;;;;;6.85;3.67;;;;;;;;;;5118626;28;20035;-69
2022/05/13 00:13:42;;;;;;;8.13;3.70;;;;;;;;;;5117840;28;20047;-69
2022/05/13 00:16:08;;;;;;;8.40;3.90;;;;;;;;;;5117963;28;20046;-70
2022/05/13 00:18:35;;;;;;;9.20;4.65;;;;;;;;;;5117677;28;20066;-69
2022/05/13 00:21:01;;;;;;;6.80;3.92;;;;;;;;;;5117577;28;20528;-69
2022/05/13 00:23:27;;;;;;;7.22;4.53;;;;;;;;;;5117534;28;20048;-69
2022/05/13 00:25:53;;;;;;;10.13;4.57;;;;;;;;;;5117609;28;20039;-69
2022/05/13 00:28:19;;;;;;;10.18;4.20;;;;;;;;;;5117764;28;20067;-69
2022/05/13 00:30:48;;;;;;;8.48;4.20;;;;;;;;;;5118317;28;20060;-69
2022/05/13 00:33:14;;;;;;;8.55;4.10;;;;;;;;;;5117207;28;20097;-69
2022/05/13 00:35:40;;;;;;;9.80;4.57;;;;;;;;;;5116850;28;20560;-69
2022/05/13 00:38:07;;;;;;;7.70;4.70;;;;;;;;;;5117559;28;20126;-70
2022/05/13 00:40:33;;;;;;;9.43;4.45;;;;;;;;;;5117236;28;20039;-69
2022/05/13 00:43:01;;;;;;;6.57;3.45;;;;;;;;;;5117457;28;20118;-69
2022/05/13 00:45:28;;;;;;;10.90;5.10;;;;;;;;;;5117164;28;20067;-69
2022/05/13 00:47:54;;;;;;;7.65;4.45;;;;;;;;;;5117432;28;20075;-70
2022/05/13 00:50:21;;;;;;;6.22;4.43;;;;;;;;;;5117349;28;20126;-69
2022/05/13 00:52:49;;;;;;;9.15;4.78;;;;;;;;;;5117601;28;20062;-70
2022/05/13 00:55:18;;;;;;;10.93;5.07;;;;;;;;;;5116878;28;20035;-70
2022/05/13 00:57:45;;;;;;;9.05;5.07;;;;;;;;;;5116829;28;20035;-69
2022/05/13 01:00:13;;;;;;;10.52;4.60;;;;;;;;;;5116857;28;20040;-69
2022/05/13 01:02:43;;;;;;;7.38;4.07;;;;;;;;;;5117431;28;20131;-69
2022/05/13 01:05:10;;;;;;;8.93;4.95;;;;;;;;;;5117020;28;20031;-69
2022/05/13 01:07:36;;;;;;;10.40;4.57;;;;;;;;;;5116718;28;20039;-69
2022/05/13 01:10:04;;;;;;;7.43;4.40;;;;;;;;;;5116677;28;20035;-69
2022/05/13 01:12:37;;;;;;;9.73;4.70;;;;;;;;;;5116920;28;20055;-70
2022/05/13 01:15:09;;;;;;;10.00;4.70;;;;;;;;;;5116861;28;20479;-69
2022/05/13 01:20:24;;;;;;;10.93;5.25;;;;;;;;;;5116565;28;20513;-69
2022/05/13 01:22:58;;;;;;;8.70;4.53;;;;;;;;;;5116965;28;20055;-69
2022/05/13 01:25:25;;;;;;;8.52;4.78;;;;;;;;;;5116609;28;20084;-69
2022/05/13 01:27:52;;;;;;;11.02;4.63;;;;;;;;;;5116899;28;20050;-70
2022/05/13 01:30:21;;;;;;;9.18;4.75;;;;;;;;;;5117094;28;20474;-70
2022/05/13 01:32:47;;;;;;;13.20;4.70;;;;;;;;;;5116871;28;20051;-69
2022/05/13 01:35:13;;;;;;;8.27;4.85;;;;;;;;;;5116688;28;20081;-69
2022/05/13 01:37:40;;;;;;;9.00;4.97;;;;;;;;;;5116710;28;20045;-69
2022/05/13 01:40:07;;;;;;;8.85;4.80;;;;;;;;;;5116309;28;20066;-69
2022/05/13 01:42:34;;;;;;;8.18;4.60;;;;;;;;;;5116265;28;20406;-69
2022/05/13 01:45:00;;;;;;;7.95;4.63;;;;;;;;;;5116221;28;20047;-69
2022/05/13 01:47:27;;;;;;;10.40;5.38;;;;;;;;;;5115395;28;20043;-69
2022/05/13 01:49:53;;;;;;;9.68;5.25;;;;;;;;;;5116280;28;20067;-69
2022/05/13 01:52:20;;;;;;;5.85;4.72;;;;;;;;;;5116690;28;20043;-69
2022/05/13 01:54:46;;;;;;;9.50;5.10;;;;;;;;;;5116056;28;20390;-69
2022/05/13 01:57:12;;;;;;;8.73;4.90;;;;;;;;;;5116308;28;20044;-69
2022/05/13 01:59:38;;;;;;;7.35;5.28;;;;;;;;;;5116002;28;20035;-69
2022/05/13 02:02:05;;;;;;;7.55;4.70;;;;;;;;;;5116159;28;20035;-69
2022/05/13 02:04:31;;;;;;;8.55;5.07;;;;;;;;;;5116146;28;20159;-69
2022/05/13 02:06:57;;;;;;;7.70;4.90;;;;;;;;;;5116905;28;20039;-69
2022/05/13 02:09:24;;;;;;;8.93;4.95;;;;;;;;;;5115740;28;20058;-69
2022/05/13 02:11:51;;;;;;;7.32;4.85;;;;;;;;;;5116606;28;20035;-69
2022/05/13 02:14:17;;;;;;;8.73;5.00;;;;;;;;;;5116169;28;20057;-69
2022/05/13 02:16:44;;;;;;;6.65;4.32;;;;;;;;;;5115848;28;20155;-69
2022/05/13 02:19:10;;;;;;;10.43;5.28;;;;;;;;;;5115473;28;20039;-69
2022/05/13 02:21:37;;;;;;;7.22;4.30;;;;;;;;;;5115897;28;20036;-69
2022/05/13 02:24:04;;;;;;;8.93;4.78;;;;;;;;;;5116063;28;20047;-69
2022/05/13 02:26:30;;;;;;;10.23;5.53;;;;;;;;;;5115826;28;20035;-69
2022/05/13 02:28:59;;;;;;;9.38;4.78;;;;;;;;;;5115783;28;20047;-69
2022/05/13 02:31:26;;;;;;;6.72;4.40;;;;;;;;;;5115622;28;20076;-69
2022/05/13 02:33:52;;;;;;;8.85;5.20;;;;;;;;;;5115599;28;20070;-69
2022/05/13 02:36:18;;;;;;;12.52;4.55;;;;;;;;;;5116196;28;20028;-69
2022/05/13 02:38:44;;;;;;;8.63;5.10;;;;;;;;;;5115312;28;20482;-69
2022/05/13 02:41:13;;;;;;;8.25;4.95;;;;;;;;;;5115370;28;20085;-69
2022/05/13 02:43:44;;;;;;;7.78;4.88;;;;;;;;;;5115541;28;20126;-69
2022/05/13 02:46:10;;;;;;;;;;;;;;;;;;5115884;28;20042;-69
2022/05/13 02:48:37;;;;;;;11.13;4.72;;;;;;;;;;5115703;28;20005;-69
2022/05/13 02:51:03;;;;;;;10.93;5.88;;;;;;;;;;5115157;28;20040;-69
2022/05/13 02:53:29;;;;;;;10.35;4.80;;;;;;;;;;5115526;28;20131;-69
2022/05/13 02:55:55;;;;;;;5.32;4.57;;;;;;;;;;5115365;28;20040;-69
2022/05/13 02:58:21;;;;;;;10.57;4.95;;;;;;;;;;5114859;28;20039;-69
2022/05/13 03:00:48;;;;;;;8.23;5.07;;;;;;;;;;5115180;28;20046;-69
2022/05/13 03:03:14;;;;;;;6.15;4.07;;;;;;;;;;5115425;28;20100;-69
2022/05/13 03:05:41;;;;;;;7.57;4.50;;;;;;;;;;5114902;28;20044;-69
2022/05/13 03:08:07;;;;;;;10.48;4.95;;;;;;;;;;5115127;28;20092;-69
2022/05/13 03:10:36;;;;;;;9.18;5.28;;;;;;;;;;5114823;28;20035;-69
2022/05/13 03:13:03;;;;;;;7.95;4.85;;;;;;;;;;5114484;28;20044;-70
2022/05/13 03:15:29;;;;;;;7.07;4.80;;;;;;;;;;5115097;28;20042;-69
2022/05/13 03:17:56;;;;;;;6.07;4.50;;;;;;;;;;5114692;28;20114;-70
2022/05/13 03:20:23;;;;;;;8.00;4.45;;;;;;;;;;5114535;28;20035;-69
2022/05/13 03:22:51;;;;;;;7.55;4.85;;;;;;;;;;5115017;28;20043;-69
2022/05/13 03:25:17;;;;;;;8.75;4.53;;;;;;;;;;5114771;28;20039;-69
2022/05/13 03:27:43;;;;;;;9.23;4.68;;;;;;;;;;5114622;28;20071;-69
2022/05/13 03:30:12;;;;;;;7.35;4.90;;;;;;;;;;5114769;28;20593;-69
2022/05/13 03:32:38;;;;;;;7.72;4.57;;;;;;;;;;5114893;28;20051;-69
2022/05/13 03:35:05;;;;;;;5.45;4.60;;;;;;;;;;5114685;28;20089;-69
2022/05/13 03:37:32;;;;;;;7.97;4.88;;;;;;;;;;5114376;28;20040;-69
2022/05/13 03:39:58;;;;;;;12.02;4.85;;;;;;;;;;5114348;28;20122;-69
2022/05/13 03:42:24;;;;;;;7.03;4.18;;;;;;;;;;5114524;28;20047;-69
2022/05/13 03:44:51;;;;;;;7.25;4.68;;;;;;;;;;5114651;28;20486;-69
2022/05/13 03:47:17;;;;;;;10.80;5.10;;;;;;;;;;5114814;28;20104;-69
2022/05/13 03:49:43;;;;;;;8.75;4.93;;;;;;;;;;5114401;28;20040;-69
2022/05/13 03:52:10;;;;;;;6.57;4.85;;;;;;;;;;5114252;28;20490;-69
2022/05/13 03:54:38;;;;;;;8.25;4.85;;;;;;;;;;5114684;28;20069;-69
2022/05/13 03:57:04;;;;;;;6.70;4.72;;;;;;;;;;5114109;28;20120;-69
2022/05/13 03:59:31;;;;;;;8.45;5.18;;;;;;;;;;5114481;28;20070;-69
2022/05/13 04:01:57;;;;;;;9.45;5.70;;;;;;;;;;5114373;28;20043;-69
2022/05/13 04:04:24;;;;;;;7.45;5.15;;;;;;;;;;5113921;28;20075;-69
2022/05/13 04:09:35;;;;;;;11.00;5.00;;;;;;;;;;5114319;28;20038;-69
2022/05/13 04:17:31;;;;;;;8.43;4.88;;;;;;;;;;5116911;28;20035;-70
2022/05/13 04:19:58;;;;;;;5.75;4.75;;;;;;;;;;5117627;28;20046;-70
2022/05/13 04:22:27;;;;;;;9.18;5.20;;;;;;;;;;5116738;28;20102;-70
2022/05/13 04:24:53;;;;;;;5.57;4.68;;;;;;;;;;5116889;28;20478;-69
2022/05/13 04:27:19;;;;;;;9.13;5.22;;;;;;;;;;5117638;28;20028;-69
2022/05/13 04:29:46;;;;;;;9.05;5.00;;;;;;;;;;5116940;28;20153;-69
2022/05/13 04:32:12;;;;;;;7.95;5.63;;;;;;;;;;5118474;28;20029;-69
2022/05/13 04:34:38;;;;;;;6.57;5.05;;;;;;;;;;5117543;28;20040;-69
2022/05/13 04:37:04;;;;;;;8.18;4.85;;;;;;;;;;5117042;28;20490;-70
2022/05/13 04:39:30;;;;;;;7.60;5.15;;;;;;;;;;5117286;28;20569;-69
2022/05/13 04:44:49;;;;;;;8.07;4.70;;;;;;;;;;5085434;28;20494;-69
2022/05/13 04:50:00;;;;;;;8.77;5.00;;;;;;;;;;5116756;28;20038;-68
2022/05/13 04:52:26;;;;;;;9.55;4.93;;;;;;;;;;5117711;28;20123;-68
2022/05/13 04:54:52;;;;;;;9.00;4.97;;;;;;;;;;5117017;28;20557;-68
2022/05/13 04:57:18;;;;;;;8.13;4.90;;;;;;;;;;5117175;28;20078;-68
2022/05/13 04:59:44;;;;;;;6.13;4.50;;;;;;;;;;5116808;28;20074;-68
2022/05/13 05:02:10;;;;;;;7.47;4.70;;;;;;;;;;5117313;28;20143;-68
2022/05/13 05:04:37;;;;;;;8.65;5.15;;;;;;;;;;5117076;28;20525;-68
2022/05/13 05:07:03;;;;;;;5.63;4.50;;;;;;;;;;5116709;28;20398;-68
2022/05/13 05:09:29;;;;;;;5.13;4.38;;;;;;;;;;5116983;28;20036;-68
2022/05/13 05:11:56;;;;;;;6.47;4.10;;;;;;;;;;5116556;28;20043;-69
2022/05/13 05:14:22;;;;;;;6.35;4.68;;;;;;;;;;5117029;28;20048;-68
2022/05/13 05:16:48;;;;;;;7.35;4.97;;;;;;;;;;5116870;28;20047;-68
2022/05/13 05:19:14;;;;;;;5.93;4.30;;;;;;;;;;5116359;28;20035;-68
2022/05/13 05:21:40;;;;;;;7.85;4.00;;;;;;;;;;5116419;28;20065;-68
2022/05/13 05:24:07;;;;;;;6.13;4.65;;;;;;;;;;5115988;28;20039;-68
2022/05/13 05:26:33;;;;;;;9.75;4.68;;;;;;;;;;5116674;28;20054;-68
2022/05/13 05:28:59;;;;;;;6.60;4.40;;;;;;;;;;5116742;28;20039;-68
2022/05/13 05:31:25;;;;;;;6.63;4.50;;;;;;;;;;5116262;28;20040;-68
2022/05/13 05:33:51;;;;;;;6.70;4.65;;;;;;;;;;5116381;28;20545;-68
2022/05/13 05:36:18;;;;;;;7.53;4.53;;;;;;;;;;5116079;28;20563;-68
2022/05/13 05:38:44;;;;;;;9.45;4.50;;;;;;;;;;5116412;28;20036;-68
2022/05/13 05:41:10;;;;;;;9.90;4.65;;;;;;;;;;5116077;28;20040;-68
2022/05/13 05:43:36;;;;;;;6.15;4.22;;;;;;;;;;5116683;28;20040;-68
2022/05/13 05:46:03;;;;;;;7.30;4.30;;;;;;;;;;5116243;28;20071;-69
2022/05/13 05:48:29;;;;;;;8.65;4.20;;;;;;;;;;5115738;28;20047;-68
2022/05/13 05:50:57;;;;;;;6.85;4.20;;;;;;;;;;5115831;28;20036;-69
2022/05/13 05:58:57;;;;;;;7.75;4.30;;;;;;;;;;5115538;28;20038;-68
2022/05/13 06:01:23;;;;;;;5.88;4.22;;;;;;;;;;5115936;28;20108;-68
2022/05/13 06:03:49;;;;;;;8.55;4.60;;;;;;;;;;5114618;28;20170;-68
2022/05/13 06:06:16;;;;;;;7.32;4.72;;;;;;;;;;5115361;28;20151;-68
2022/05/13 06:08:42;;;;;;;5.90;4.18;;;;;;;;;;5115491;28;20063;-68
2022/05/13 06:11:09;;;;;;;9.73;4.72;;;;;;;;;;5115751;28;20032;-68
2022/05/13 06:13:36;;;;;;;8.27;4.15;;;;;;;;;;5115101;28;20062;-69
2022/05/13 06:16:02;;;;;;;4.38;3.97;;;;;;;;;;5115280;28;20042;-68
2022/05/13 06:18:28;;;;;;;6.57;3.92;;;;;;;;;;5114370;28;20047;-68
2022/05/13 06:20:54;;;;;;;6.10;4.07;;;;;;;;;;5114822;28;20042;-68
2022/05/13 06:23:20;;;;;;;7.32;4.25;;;;;;;;;;5116057;28;20044;-68
2022/05/13 06:25:46;;;;;;;9.50;4.70;;;;;;;;;;5115847;28;20145;-68
2022/05/13 06:28:13;;;;;;;6.40;4.32;;;;;;;;;;5116038;28;20043;-69
2022/05/13 06:30:39;;;;;;;7.18;4.40;;;;;;;;;;5116056;28;20036;-69
2022/05/13 06:33:05;;;;;;;9.52;4.43;;;;;;;;;;5115088;28;20046;-69
2022/05/13 06:35:33;;;;;;;9.18;4.32;;;;;;;;;;5115585;28;20062;-68
2022/05/13 06:37:59;;;;;;;10.32;4.60;;;;;;;;;;5116088;28;20553;-68
2022/05/13 06:40:26;;;;;;;7.05;4.57;;;;;;;;;;5115445;28;20038;-68
2022/05/13 06:42:52;;;;;;;8.52;4.63;;;;;;;;;;5114595;28;20055;-68
2022/05/13 06:45:19;;;;;;;10.23;4.78;;;;;;;;;;5114681;28;20043;-69
2022/05/13 06:47:45;;;;;;;12.40;4.47;;;;;;;;;;5115229;28;20474;-69
2022/05/13 06:50:12;;;;;;;7.95;4.93;;;;;;;;;;5114949;28;20032;-69
2022/05/13 06:52:38;;;;;;;10.50;4.88;;;;;;;;;;5113886;28;20052;-70
2022/05/13 06:55:05;;;;;;;15.23;4.90;;;;;;;;;;5113993;28;20036;-70
2022/05/13 06:57:31;;;;;;;7.35;5.22;;;;;;;;;;5112788;28;20044;-75
2022/05/13 06:59:58;;;;;;;9.75;4.38;;;;;;;;;;5112661;28;20028;-68
2022/05/13 07:02:27;;;;;;;8.63;4.50;;;;;;;;;;5114522;28;20039;-69
2022/05/13 07:04:53;;;;;;;10.10;4.80;;;;;;;;;;5113732;28;20035;-71
2022/05/13 07:07:19;;;;;;;9.43;4.15;;;;;;;;;;5114548;28;20084;-71
2022/05/13 07:09:45;;;;;;;10.90;4.43;;;;;;;;;;5114435;28;20035;-72
2022/05/13 07:12:11;;;;;;;12.23;4.38;;;;;;;;;;5113948;28;20046;-75
2022/05/13 07:14:38;;;;;;;7.85;3.97;;;;;;;;;;5114424;28;20040;-71
2022/05/13 07:17:05;;;;;;;5.38;3.83;;;;;;;;;;5106267;28;20043;-73
2022/05/13 07:19:31;;;;;;;10.38;3.95;;;;;;;;;;5113007;28;20059;-73
2022/05/13 07:22:00;;;;;;;6.32;3.80;;;;;;;;;;5114803;28;20039;-73
2022/05/13 07:24:26;;;;;;;9.73;4.35;;;;;;;;;;5114553;28;20092;-71
2022/05/13 07:26:53;;;;;;;7.55;4.07;;;;;;;;;;5114676;28;20032;-71
2022/05/13 07:29:19;;;;;;;10.40;4.43;;;;;;;;;;5114739;28;20039;-68
2022/05/13 07:31:45;;;;;;;5.28;3.70;;;;;;;;;;5114122;28;20428;-71
2022/05/13 07:34:11;;;;;;;10.55;4.72;;;;;;;;;;5113961;28;20115;-69
2022/05/13 07:36:37;;;;;;;8.45;3.90;;;;;;;;;;5114706;28;20120;-68
2022/05/13 07:41:49;;;;;;;12.40;4.20;;;;;;;;;;5114358;28;20047;-69
2022/05/13 07:44:16;;;;;;;9.88;5.10;;;;;;;;;;5114818;28;20146;-69
2022/05/13 07:46:43;;;;;;;7.30;4.63;;;;;;;;;;5118172;28;20042;-69
2022/05/13 07:49:09;;;;;;;7.63;4.63;;;;;;;;;;5117626;28;20031;-69
2022/05/13 07:51:35;;;;;;;8.73;5.30;;;;;;;;;;5116828;28;20036;-67
2022/05/13 07:54:02;;;;;;;8.50;5.03;;;;;;;;;;5117942;28;20471;-67
2022/05/13 07:56:28;;;;;;;11.45;5.72;;;;;;;;;;5118277;28;20053;-67
2022/05/13 07:58:57;;;;;;;5.72;5.20;;;;;;;;;;5117784;28;20050;-67
2022/05/13 08:01:23;;;;;;;8.05;5.63;;;;;;;;;;5117257;28;20066;-67
2022/05/13 08:03:49;;;;;;;10.27;5.90;;;;;;;;;;5117435;28;20051;-67
2022/05/13 08:06:16;;;;;;;10.57;5.90;;;;;;;;;;5118783;28;20051;-67
2022/05/13 08:08:45;;;;;;;11.68;7.22;;;;;;;;;;5118101;28;20027;-67
2022/05/13 08:11:13;;;;;;;9.10;6.57;;;;;;;;;;5117770;28;20043;-67
2022/05/13 08:13:40;;;;;;;9.10;6.78;;;;;;;;;;5116510;28;20131;-67
2022/05/13 08:16:08;;;;;;;13.88;7.18;;;;;;;;;;5115847;28;20069;-67
2022/05/13 08:18:34;;;;;;;11.15;7.28;;;;;;;;;;5116244;28;20051;-70
2022/05/13 08:21:01;;;;;;;12.23;6.88;;;;;;;;;;5116967;28;20061;-67
2022/05/13 08:23:28;;;;;;;14.02;6.78;;;;;;;;;;5115567;28;20059;-67
2022/05/13 08:25:54;;;;;;;10.52;7.05;;;;;;;;;;5117077;28;20039;-67
2022/05/13 08:28:22;;;;;;;13.63;7.00;;;;;;;;;;5117295;28;20046;-67
2022/05/13 08:30:48;;;;;;;9.65;6.43;;;;;;;;;;5118290;28;20546;-67
2022/05/13 08:33:14;;;;;;;13.60;6.97;;;;;;;;;;5116972;28;20059;-66
2022/05/13 08:35:46;;;;;;;9.13;6.63;;;;;;;;;;5117674;28;20521;-68
2022/05/13 08:38:13;;;;;;;11.07;6.47;;;;;;;;;;5116772;28;20043;-66
2022/05/13 08:40:39;;;;;;;9.23;6.75;;;;;;;;;;5115367;28;20120;-66
2022/05/13 08:43:09;;;;;;;9.55;6.72;;;;;;;;;;5116420;27;20045;-67
2022/05/13 08:45:36;;;;;;;15.10;6.97;;;;;;;;;;5117493;28;20082;-66
2022/05/13 08:48:02;;;;;;;9.23;6.38;;;;;;;;;;5117148;28;20043;-66
2022/05/13 08:50:37;;;;;;;11.93;5.93;;;;;;;;;;5117955;28;20097;-67
2022/05/13 08:53:06;;;;;;;12.25;6.28;;;;;;;;;;5117023;28;20046;-68
2022/05/13 08:55:42;;;;;;;10.20;5.80;;;;;;;;;;5116631;28;20039;-68
2022/05/13 08:58:11;;;;;;;10.52;6.38;;;;;;;;;;5117110;28;20588;-69
2022/05/13 09:00:49;;;;;;;9.57;5.88;;;;;;;;;;5116313;28;20044;-68
2022/05/13 09:03:23;;;;;;;10.75;5.93;;;;;;;;;;5116378;28;20051;-69
2022/05/13 09:06:04;;;;;;;9.57;5.75;;;;;;;;;;5117443;28;20040;-69
2022/05/13 09:08:31;;;;;;;13.57;6.53;;;;;;;;;;5116524;28;20529;-67
2022/05/13 09:11:00;;;;;;;8.02;5.43;;;;;;;;;;5116966;28;20051;-70
2022/05/13 09:13:36;;;;;;;9.05;5.40;;;;;;;;;;5111179;28;21484;-69
2022/05/13 09:16:03;;;;;;;13.35;5.72;;;;;;;;;;5116669;28;20047;-66
2022/05/13 09:18:38;;;;;;;12.07;5.85;;;;;;;;;;5116330;28;20040;-66
2022/05/13 09:21:10;;;;;;;7.65;5.85;;;;;;;;;;5099245;28;20433;-66
2022/05/13 09:23:37;;;;;;;10.00;5.72;;;;;;;;;;5095959;28;20044;-67
2022/05/13 09:26:09;;;;;;;13.75;6.63;;;;;;;;;;5095797;28;20130;-66
2022/05/13 09:28:37;;;;;;;10.10;5.82;;;;;;;;;;5095511;28;20193;-67
2022/05/13 09:31:22;;;;;;;11.00;5.88;;;;;;;;;;5112699;28;20039;-67
2022/05/13 09:33:49;;;;;;;7.97;5.78;;;;;;;;;;5115333;28;20055;-66
2022/05/13 09:36:25;;;;;;;12.55;5.78;;;;;;;;;;5115355;28;20113;-66
2022/05/13 09:38:52;;;;;;;8.00;5.47;;;;;;;;;;5116101;28;20070;-67
2022/05/13 09:41:29;;;;;;;9.73;6.15;;;;;;;;;;5116015;28;20118;-66
2022/05/13 09:44:14;;;;;;;11.30;5.47;;;;;;;;;;5115414;28;20169;-67
2022/05/13 09:46:45;;;;;;;9.43;6.00;;;;;;;;;;5115338;28;20040;-66
2022/05/13 09:49:11;;;;;;;;;;;;;;;;;;5115979;28;20047;-67
2022/05/13 09:51:51;;;;;;;8.82;5.53;;;;;;;;;;5114433;28;19915;-67
2022/05/13 09:54:23;;;;;;;9.50;5.95;;;;;;;;;;5115499;28;20501;-69
2022/05/13 09:56:53;;;;;;;9.13;5.93;;;;;;;;;;5115268;28;20036;-69
2022/05/13 09:59:20;;;;;;;8.50;5.70;;;;;;;;;;5115690;28;20038;-69
2022/05/13 10:01:47;;;;;;;8.43;5.40;;;;;;;;;;5115789;28;20040;-69
2022/05/13 10:04:22;;;;;;;10.32;5.97;;;;;;;;;;5115568;28;20050;-69
2022/05/13 10:06:48;;;;;;;12.82;5.97;;;;;;;;;;5095914;28;20043;-69
2022/05/13 10:15:25;;;;;;;8.25;5.53;;;;;;;;;;5114970;28;20046;-69
2022/05/13 10:17:53;;;;;;;9.57;5.10;;;;;;;;;;5114340;28;20039;-69
2022/05/13 10:20:23;;;;;;;7.40;5.35;;;;;;;;;;5114035;28;20100;-69
2022/05/13 10:22:57;;;;;;;7.72;5.03;;;;;;;;;;5094875;28;20187;-67
2022/05/13 10:25:29;;;;;;;12.38;5.50;;;;;;;;;;5109461;28;20043;-67
2022/05/13 10:28:00;;;;;;;11.45;5.32;;;;;;;;;;5114864;28;20150;-66
2022/05/13 10:30:34;;;;;;;9.00;5.63;;;;;;;;;;5114555;28;20040;-67
2022/05/13 10:33:11;;;;;;;10.38;5.68;;;;;;;;;;5114543;28;20053;-67
2022/05/13 10:36:06;;;;;;;12.57;5.90;;;;;;;;;;5114251;28;20119;-67
2022/05/13 10:38:37;;;;;;;10.70;5.78;;;;;;;;;;5096501;28;20088;-67
2022/05/13 10:41:23;;;;;;;9.65;5.43;;;;;;;;;;5115152;28;20082;-68
2022/05/13 10:43:59;;;;;;;7.75;5.40;;;;;;;;;;5099565;28;20040;-69
2022/05/13 10:46:44;;;;;;;9.68;5.47;;;;;;;;;;5114352;28;20035;-69
2022/05/13 10:49:11;;;;;;;8.25;5.47;;;;;;;;;;5105784;28;20144;-69
2022/05/13 10:51:47;;;;;;;9.10;5.43;;;;;;;;;;5114529;28;20074;-69
2022/05/13 10:54:33;;;;;;;9.25;5.78;;;;;;;;;;5114610;28;20075;-69
2022/05/13 10:57:08;;;;;;;8.20;5.82;;;;;;;;;;5114680;28;20575;-69
2022/05/13 10:59:46;;;;;;;11.07;5.60;;;;;;;;;;5114428;28;20066;-69
2022/05/13 11:02:22;;;;;;;8.20;5.85;;;;;;;;;;5113688;28;20122;-69
2022/05/13 11:05:02;;;;;;;11.95;5.75;;;;;;;;;;5113834;28;20093;-69
2022/05/13 11:07:34;;;;;;;10.43;6.00;;;;;;;;;;5110980;28;21786;-67
2022/05/13 11:10:08;;;;;;;11.10;5.47;;;;;;;;;;5111167;28;20755;-70
2022/05/13 11:12:34;;;;;;;13.00;5.43;;;;;;;;;;5107816;28;20079;-70
2022/05/13 11:15:15;;;;;;;11.93;5.80;;;;;;;;;;5114317;28;20039;-70
2022/05/13 11:17:41;;;;;;;12.50;6.07;;;;;;;;;;5113492;28;20043;-69
2022/05/13 11:20:17;;;;;;;11.50;6.18;;;;;;;;;;5117733;28;20062;-70
2022/05/13 11:22:44;;;;;;;8.93;5.90;;;;;;;;;;5118263;28;20118;-70
2022/05/13 11:28:01;;;;;;;8.98;5.75;;;;;;;;;;5118413;28;20058;-70
2022/05/13 11:30:31;;;;;;;8.02;5.35;;;;;;;;;;5119101;28;20063;-68
2022/05/13 11:32:57;;;;;;;;;;;;;;;;;;5119680;28;20087;-70
2022/05/13 11:35:44;;;;;;;8.48;5.45;;;;;;;;;;5118115;28;20278;-70
2022/05/13 11:38:10;;;;;;;8.30;5.57;;;;;;;;;;5121337;27;20039;-69
2022/05/13 11:40:48;;;;;;;8.40;5.63;;;;;;;;;;5116827;28;20122;-68
2022/05/13 11:43:25;;;;;;;8.55;5.60;;;;;;;;;;5115563;28;20051;-68
2022/05/13 11:45:59;;;;;;;10.85;5.65;;;;;;;;;;5125361;27;20051;-65
2022/05/13 11:48:30;;;;;;;12.80;6.15;;;;;;;;;;5116666;28;20043;-67
2022/05/13 11:51:15;;;;;;;8.75;5.70;;;;;;;;;;5102739;28;20626;-68
2022/05/13 11:53:42;;;;;;;6.18;5.10;;;;;;;;;;5113789;27;20371;-67
2022/05/13 11:56:29;;;;;;;10.38;5.35;;;;;;;;;;5118111;28;20035;-67
2022/05/13 11:58:58;;;;;;;8.82;5.38;;;;;;;;;;5117063;28;20110;-67
2022/05/13 12:01:36;;;;;;;8.20;5.57;;;;;;;;;;5125443;27;20122;-67
2022/05/13 12:04:14;;;;;;;9.85;5.40;;;;;;;;;;5115313;28;20073;-67
2022/05/13 12:06:49;;;;;;;11.50;5.03;;;;;;;;;;5117571;28;20529;-67
2022/05/13 12:09:24;;;;;;;8.18;4.70;;;;;;;;;;5117333;28;20573;-67
2022/05/13 12:11:53;;;;;;;9.32;5.28;;;;;;;;;;5117800;28;20040;-68
2022/05/13 12:14:28;;;;;;;8.50;5.28;;;;;;;;;;5117194;28;20051;-68
2022/05/13 12:17:13;;;;;;;8.50;5.25;;;;;;;;;;5116893;28;20031;-67
2022/05/13 12:19:58;;;;;;;9.60;4.95;;;;;;;;;;5117873;28;20118;-67
2022/05/13 12:22:34;;;;;;;5.57;4.47;;;;;;;;;;5116623;28;20046;-67
2022/05/13 12:25:07;;;;;;;9.35;4.82;;;;;;;;;;5117744;28;20054;-66
2022/05/13 12:27:38;;;;;;;8.05;5.15;;;;;;;;;;5118566;27;20036;-67
2022/05/13 12:30:24;;;;;;;11.23;5.13;;;;;;;;;;5116333;28;20043;-67
2022/05/13 12:32:50;;;;;;;9.32;5.07;;;;;;;;;;5107664;28;20036;-67
2022/05/13 12:38:09;;;;;;;9.63;4.95;;;;;;;;;;5116557;28;20066;-67
2022/05/13 12:40:40;;;;;;;6.97;5.00;;;;;;;;;;5116151;28;20398;-67
2022/05/13 12:43:06;;;;;;;10.38;5.88;;;;;;;;;;5115929;28;20086;-67
2022/05/13 12:45:41;;;;;;;9.00;5.88;;;;;;;;;;5117226;28;20040;-67
2022/05/13 12:48:07;;;;;;;6.80;5.07;;;;;;;;;;5116490;28;20066;-67
2022/05/13 12:50:56;;;;;;;8.00;5.55;;;;;;;;;;5116520;28;20067;-67
2022/05/13 12:53:28;;;;;;;11.65;5.85;;;;;;;;;;5112672;28;20582;-67
2022/05/13 12:55:59;;;;;;;13.30;5.30;;;;;;;;;;5112108;28;20049;-67
2022/05/13 12:58:27;;;;;;;8.43;5.22;;;;;;;;;;5116335;28;20051;-67
2022/05/13 13:00:59;;;;;;;11.70;5.50;;;;;;;;;;5109522;27;20134;-67
2022/05/13 13:03:25;;;;;;;8.13;5.38;;;;;;;;;;5100779;27;20506;-67
2022/05/13 13:06:00;;;;;;;10.27;5.70;;;;;;;;;;5107537;27;20044;-67
2022/05/13 13:08:35;;;;;;;9.50;5.13;;;;;;;;;;5111124;27;20039;-68
2022/05/13 13:11:16;;;;;;;14.07;5.40;;;;;;;;;;5115491;28;20417;-68
2022/05/13 13:13:51;;;;;;;11.45;5.88;;;;;;;;;;5114839;28;20075;-67
2022/05/13 13:16:21;;;;;;;9.80;5.32;;;;;;;;;;5114689;28;20197;-67
2022/05/13 13:18:47;;;;;;;;;;;;;;;;;;5115134;28;20040;-67
2022/05/13 13:21:15;;;;;;;10.15;5.53;;;;;;;;;;5117187;28;19907;-68
2022/05/13 13:23:42;;;;;;;12.23;5.03;;;;;;;;;;5116319;28;20075;-68
2022/05/13 13:26:10;;;;;;;8.13;5.00;;;;;;;;;;5116252;28;20039;-68
2022/05/13 13:28:39;;;;;;;8.15;4.93;;;;;;;;;;5117038;28;20108;-68
2022/05/13 13:31:07;;;;;;;10.73;5.03;;;;;;;;;;5116390;28;20032;-69
2022/05/13 13:33:35;;;;;;;6.60;5.15;;;;;;;;;;5116537;28;20096;-68
2022/05/13 13:36:22;;;;;;;6.57;4.57;;;;;;;;;;5116220;28;20036;-68
2022/05/13 13:38:50;;;;;;;11.30;4.75;;;;;;;;;;5116253;28;20501;-68
2022/05/13 13:41:24;;;;;;;7.47;4.63;;;;;;;;;;5115604;28;20040;-68
2022/05/13 13:43:54;;;;;;;7.68;4.72;;;;;;;;;;5113232;28;20058;-68
2022/05/13 13:46:24;;;;;;;7.38;5.03;;;;;;;;;;5098688;28;20154;-67
2022/05/13 13:48:52;;;;;;;11.85;4.90;;;;;;;;;;5106875;28;20106;-67
2022/05/13 13:51:23;;;;;;;9.98;4.88;;;;;;;;;;5095948;28;20066;-67
2022/05/13 13:53:56;;;;;;;14.02;5.60;;;;;;;;;;5114732;28;20066;-67
2022/05/13 13:56:23;;;;;;;7.45;4.90;;;;;;;;;;5115471;28;20040;-67
2022/05/13 13:59:19;;;;;;;7.45;4.53;;;;;;;;;;5116194;28;20044;-67
2022/05/13 14:01:46;;;;;;;10.00;5.30;;;;;;;;;;5098337;28;20044;-67
2022/05/13 14:04:21;;;;;;;5.85;4.57;;;;;;;;;;5115725;28;20050;-67
2022/05/13 14:06:47;;;;;;;9.00;4.93;;;;;;;;;;5115911;28;20525;-67
2022/05/13 14:09:17;;;;;;;10.45;5.05;;;;;;;;;;5115512;28;20424;-67
2022/05/13 14:11:43;;;;;;;7.68;4.63;;;;;;;;;;5115568;28;20031;-67
2022/05/13 14:14:09;;;;;;;10.35;4.82;;;;;;;;;;5115446;28;20100;-67
2022/05/13 14:16:43;;;;;;;7.10;5.10;;;;;;;;;;5115867;28;20044;-67
2022/05/13 14:19:11;;;;;;;9.85;5.63;;;;;;;;;;5115437;28;20115;-67
2022/05/13 14:21:42;;;;;;;7.18;5.15;;;;;;;;;;5115256;28;20271;-67
2022/05/13 14:24:10;;;;;;;7.90;4.93;;;;;;;;;;5115782;28;20070;-67
2022/05/13 14:26:50;;;;;;;6.88;5.22;;;;;;;;;;5115209;28;20046;-67
2022/05/13 14:29:17;;;;;;;9.90;5.50;;;;;;;;;;5115747;28;20047;-67
2022/05/13 14:31:44;;;;;;;10.00;5.15;;;;;;;;;;5115100;28;20036;-67
2022/05/13 14:34:15;;;;;;;11.15;5.10;;;;;;;;;;5115223;28;20118;-67
2022/05/13 14:36:41;;;;;;;;;;;;;;;;;;5116218;28;20069;-67
2022/05/13 14:42:03;;;;;;;9.73;4.75;;;;;;;;;;5114857;28;20120;-67
2022/05/13 14:44:35;;;;;;;10.55;5.05;;;;;;;;;;5115014;28;20176;-67
2022/05/13 14:47:02;;;;;;;7.45;5.00;;;;;;;;;;5115557;28;20108;-67
2022/05/13 14:49:52;;;;;;;8.40;5.28;;;;;;;;;;5115085;28;20037;-67
2022/05/13 14:52:28;;;;;;;5.55;4.82;;;;;;;;;;5115265;28;20048;-67
2022/05/13 14:54:56;;;;;;;9.65;5.30;;;;;;;;;;5114793;28;20066;-67
2022/05/13 14:57:23;;;;;;;8.50;5.15;;;;;;;;;;5115073;28;20043;-67
2022/05/13 14:59:52;;;;;;;8.30;5.47;;;;;;;;;;5114835;28;20035;-68
2022/05/13 15:02:29;;;;;;;7.70;5.00;;;;;;;;;;5114168;28;20050;-68
2022/05/13 15:04:57;;;;;;;7.35;5.10;;;;;;;;;;5114689;28;20122;-68
2022/05/13 15:07:37;;;;;;;8.55;5.30;;;;;;;;;;5093671;28;20036;-68
2022/05/13 15:10:04;;;;;;;7.70;5.32;;;;;;;;;;5094124;28;20036;-67
2022/05/13 15:12:30;;;;;;;9.45;5.30;;;;;;;;;;5093858;28;20044;-67
2022/05/13 15:14:58;;;;;;;8.20;5.22;;;;;;;;;;5092171;28;20056;-67
2022/05/13 15:17:25;;;;;;;7.28;5.38;;;;;;;;;;5093793;28;20052;-67
2022/05/13 15:19:51;;;;;;;9.90;5.53;;;;;;;;;;5093807;28;20036;-67
2022/05/13 15:22:22;;;;;;;8.82;5.28;;;;;;;;;;5092415;28;20044;-67
2022/05/13 15:24:49;;;;;;;8.10;5.03;;;;;;;;;;5094101;28;20039;-67
2022/05/13 15:27:17;;;;;;;10.35;5.50;;;;;;;;;;5093864;28;20036;-67
2022/05/13 15:29:44;;;;;;;7.32;5.65;;;;;;;;;;5093003;28;20036;-67
2022/05/13 15:32:18;;;;;;;10.27;5.78;;;;;;;;;;5093334;28;20490;-67